LFSN/ENC METAR and TAF weather

Enter ICAO airport designator
Station Type Date Time Source
LFSN METAR 2018/12/12 12:00 UTC NOAA

LFSN 121200Z AUTO 05005KT 0650 R03/0900U FZFG VV/// M00/M01 Q1023


Station Type Date Time Source
LFSN Decoded METAR 2018/12/12 12:00 UTC NOAA

Nancy / Essey, France (LFSN) 48-41N 006-13E 217M
Dec 12, 2018 - 07:00 AM EST / 2018.12.12 1200 UTC
Wind: from the NE (050 degrees) at 6 MPH (5 KT):0
Visibility: less than 1 mile:0
Sky conditions: obscured
Weather: freezing fog
Temperature: 32 F (0 C)
Windchill: 26 F (-3 C):1
Dew Point: 30 F (-1 C)
Relative Humidity: 92%
Pressure (altimeter): 30.21 in. Hg (1023 hPa)
ob: LFSN 121200Z AUTO 05005KT 0650 R03/0900U FZFG VV/// M00/M01 Q1023
cycle: 12

Station Type Date Time Source
LFSN TAF 2012/03/14 16:58 UTC NOAA

TAF LFSN 141600Z 1416/1512 CNL


Example: see airport list